createdAt,value
2022-11-19T00:02:17.846Z,100399.94
2022-11-19T00:04:46.484Z,100398.28
2022-11-19T00:07:15.098Z,100398.19
2022-11-19T00:09:43.711Z,100392.72
2022-11-19T00:12:29.691Z,100390.84
2022-11-19T00:14:59.754Z,100398.59
2022-11-19T00:17:28.418Z,100399.47
2022-11-19T00:19:56.965Z,100403.06
2022-11-19T00:22:25.603Z,100397.13
2022-11-19T00:24:54.129Z,100403.34
2022-11-19T00:27:22.781Z,100394.16
2022-11-19T00:29:51.331Z,100392.53
2022-11-19T00:32:21.279Z,100395.97
2022-11-19T00:34:49.913Z,100398.47
2022-11-19T00:37:18.677Z,100404.34
2022-11-19T00:39:47.299Z,100411.06
2022-11-19T00:42:15.856Z,100409.00
2022-11-19T00:44:44.656Z,100413.88
2022-11-19T00:47:13.349Z,100419.63
2022-11-19T00:49:43.622Z,100417.94
2022-11-19T00:52:12.569Z,100418.75
2022-11-19T00:54:41.128Z,100425.63
2022-11-19T00:57:09.743Z,100419.34
2022-11-19T00:59:38.296Z,100420.84
2022-11-19T01:02:06.881Z,100427.41
2022-11-19T01:04:35.459Z,100424.56
2022-11-19T01:07:05.540Z,100422.72
2022-11-19T01:09:36.567Z,100426.75
2022-11-19T01:12:05.530Z,100426.44
2022-11-19T01:14:34.447Z,100430.41
2022-11-19T01:17:03.094Z,100439.66
2022-11-19T01:19:31.680Z,100440.16
2022-11-19T01:22:00.256Z,100435.53
2022-11-19T01:24:30.216Z,100435.59
2022-11-19T01:26:58.822Z,100439.66
2022-11-19T01:29:27.868Z,100439.41
2022-11-19T01:31:57.095Z,100444.38
2022-11-19T01:34:25.653Z,100440.88
2022-11-19T01:36:54.233Z,100434.59
2022-11-19T01:39:22.821Z,100434.31
2022-11-19T01:41:52.765Z,100436.78
2022-11-19T01:44:58.298Z,100436.72
2022-11-19T01:47:26.961Z,100433.06
2022-11-19T01:49:55.559Z,100434.97
2022-11-19T01:52:24.666Z,100452.06
2022-11-19T01:54:56.641Z,100448.63
2022-11-19T01:57:26.621Z,100450.22
2022-11-19T01:59:55.563Z,100455.13
2022-11-19T02:02:25.187Z,100455.78
2022-11-19T02:04:57.171Z,100456.50
2022-11-19T02:07:29.383Z,100459.63
2022-11-19T02:09:58.934Z,100459.25
2022-11-19T02:12:40.871Z,100452.88
2022-11-19T02:15:33.301Z,100456.38
2022-11-19T02:18:22.995Z,100463.31
2022-11-19T02:21:05.734Z,100465.59
2022-11-19T02:24:10.968Z,100474.50
2022-11-19T02:27:17.201Z,100471.75
2022-11-19T02:30:04.445Z,100473.38
2022-11-19T02:32:36.647Z,100469.41
2022-11-19T02:35:15.006Z,100471.91
2022-11-19T02:37:50.609Z,100465.06
2022-11-19T02:40:25.860Z,100478.97
2022-11-19T02:43:04.487Z,100474.78
2022-11-19T02:45:39.190Z,100479.72
2022-11-19T02:48:12.443Z,100471.91
2022-11-19T02:50:46.168Z,100467.66
2022-11-19T02:53:14.853Z,100466.75
2022-11-19T02:56:04.299Z,100470.72
2022-11-19T02:58:51.343Z,100463.47
2022-11-19T03:01:41.176Z,100461.16
2022-11-19T03:04:37.529Z,100466.19
2022-11-19T03:07:10.226Z,100475.50
2022-11-19T03:09:43.115Z,100468.41
2022-11-19T03:12:23.585Z,100462.41
2022-11-19T03:15:15.499Z,100464.72
2022-11-19T03:17:55.027Z,100460.00
2022-11-19T03:20:31.219Z,100455.28
2022-11-19T03:23:04.969Z,100461.13
2022-11-19T03:25:39.265Z,100466.03
2022-11-19T03:28:13.395Z,100465.00
2022-11-19T03:30:44.206Z,100475.56
2022-11-19T03:33:19.951Z,100481.50
2022-11-19T03:35:53.018Z,100479.34
2022-11-19T03:38:28.592Z,100486.03
2022-11-19T03:40:59.755Z,100492.41
2022-11-19T03:43:32.694Z,100490.69
2022-11-19T03:46:05.061Z,100501.75
2022-11-19T03:48:37.401Z,100501.59
2022-11-19T03:51:13.384Z,100493.53
2022-11-19T03:53:42.133Z,100497.59
2022-11-19T03:56:14.316Z,100496.63
2022-11-19T03:58:45.968Z,100496.50
2022-11-19T04:01:15.465Z,100502.19
2022-11-19T04:04:05.520Z,100508.91
2022-11-19T04:06:34.205Z,100506.19
2022-11-19T04:09:02.844Z,100513.09
2022-11-19T04:11:31.489Z,100508.38
2022-11-19T04:14:00.095Z,100432.16
2022-11-19T04:16:28.722Z,100505.97
2022-11-19T04:18:58.658Z,100504.03
2022-11-19T04:21:27.282Z,100502.72
2022-11-19T04:23:55.824Z,100499.00
2022-11-19T04:26:24.480Z,100498.88
2022-11-19T04:28:53.296Z,100503.00
2022-11-19T04:31:21.917Z,100502.78
2022-11-19T04:33:50.487Z,100510.03
2022-11-19T04:36:20.547Z,100521.72
2022-11-19T04:38:49.137Z,100516.81
2022-11-19T04:41:17.712Z,100516.16
2022-11-19T04:43:46.325Z,100518.84
2022-11-19T04:46:14.933Z,100520.44
2022-11-19T04:48:43.640Z,100519.47
2022-11-19T04:51:12.257Z,100512.50
2022-11-19T04:53:42.430Z,100514.19
2022-11-19T04:56:11.374Z,100514.41
2022-11-19T04:58:40.079Z,100516.44
2022-11-19T05:01:09.166Z,100477.72
2022-11-19T05:03:37.808Z,100524.53
2022-11-19T05:06:06.675Z,100522.03
2022-11-19T05:08:35.385Z,100524.72
2022-11-19T05:11:05.537Z,100523.91
2022-11-19T05:13:34.125Z,100527.38
2022-11-19T05:16:02.676Z,100521.25
2022-11-19T05:18:31.324Z,100514.56
2022-11-19T05:21:00.025Z,100521.63
2022-11-19T05:23:29.178Z,100522.50
2022-11-19T05:25:57.775Z,100511.34
2022-11-19T05:28:37.885Z,100523.44
2022-11-19T05:31:08.607Z,100522.53
2022-11-19T05:33:37.227Z,100518.16
2022-11-19T05:36:06.518Z,100514.56
2022-11-19T05:38:35.154Z,100516.09
2022-11-19T05:41:03.819Z,100526.38
2022-11-19T05:43:33.727Z,100525.34
2022-11-19T05:46:02.599Z,100512.38
2022-11-19T05:48:31.532Z,100524.47
2022-11-19T05:51:00.169Z,100517.53
2022-11-19T05:53:28.927Z,100524.31
2022-11-19T05:55:57.624Z,100530.13
2022-11-19T05:58:26.206Z,100538.56
2022-11-19T06:00:59.620Z,100539.13
2022-11-19T06:03:28.586Z,100543.19
2022-11-19T06:05:57.224Z,100543.19
2022-11-19T06:08:25.845Z,100539.59
2022-11-19T06:10:54.432Z,100548.28
2022-11-19T06:13:23.064Z,100550.91
2022-11-19T06:15:51.671Z,100554.22
2022-11-19T06:18:21.607Z,100553.34
2022-11-19T06:20:50.191Z,100554.97
2022-11-19T06:23:18.776Z,100548.00
2022-11-19T06:25:48.881Z,100558.22
2022-11-19T06:28:17.503Z,100556.00
2022-11-19T06:30:46.175Z,100565.63
2022-11-19T06:33:14.829Z,100564.94
2022-11-19T06:35:44.742Z,100565.91
2022-11-19T06:38:13.381Z,100559.94
2022-11-19T06:40:42.039Z,100558.19
2022-11-19T06:43:10.647Z,100550.56
2022-11-19T06:46:13.161Z,100555.22
2022-11-19T06:48:42.209Z,100558.28
2022-11-19T06:51:12.196Z,100555.28
2022-11-19T06:53:40.936Z,100555.06
2022-11-19T06:56:10.041Z,100553.09
2022-11-19T06:58:39.820Z,100564.69
2022-11-19T07:01:08.467Z,100559.97
2022-11-19T07:03:39.873Z,100568.28
2022-11-19T07:06:09.009Z,100493.50
2022-11-19T07:08:39.495Z,100561.78
2022-11-19T07:11:22.743Z,100562.44
2022-11-19T07:14:00.431Z,100567.31
2022-11-19T07:16:32.655Z,100565.31
2022-11-19T07:19:02.843Z,100560.63
2022-11-19T07:21:32.310Z,100564.38
2022-11-19T07:24:04.007Z,100565.44
2022-11-19T07:26:33.959Z,100563.91
2022-11-19T07:29:05.018Z,100563.19
2022-11-19T07:31:34.260Z,100554.75
2022-11-19T07:34:03.044Z,100560.94
2022-11-19T07:36:31.682Z,100558.56
2022-11-19T07:39:01.745Z,100553.53
2022-11-19T07:41:47.680Z,100551.81
2022-11-19T07:44:16.377Z,100552.09
2022-11-19T07:46:44.943Z,100542.84
2022-11-19T07:49:14.077Z,100538.81
2022-11-19T07:51:43.645Z,100539.97
2022-11-19T07:54:14.530Z,100535.44
2022-11-19T07:56:43.640Z,100535.19
2022-11-19T07:59:13.132Z,100533.22
2022-11-19T08:01:42.009Z,100533.75
2022-11-19T08:04:10.625Z,100531.69
2022-11-19T08:06:39.279Z,100532.22
2022-11-19T08:09:07.915Z,100529.25
2022-11-19T08:11:38.309Z,100533.13
2022-11-19T08:14:06.948Z,100528.25
2022-11-19T08:16:53.283Z,100521.69
2022-11-19T08:19:22.349Z,100522.78
2022-11-19T08:21:51.498Z,100529.16
2022-11-19T08:24:21.609Z,100533.78
2022-11-19T08:26:52.255Z,100528.00
2022-11-19T08:29:23.795Z,100535.22
2022-11-19T08:31:52.992Z,100531.00
2022-11-19T08:34:22.306Z,100527.59
2022-11-19T08:36:51.176Z,100544.81
2022-11-19T08:39:19.706Z,100538.75
2022-11-19T08:42:04.883Z,100543.81
2022-11-19T08:44:34.858Z,100540.06
2022-11-19T08:47:03.480Z,100540.25
2022-11-19T08:49:32.326Z,100542.16
2022-11-19T08:52:00.955Z,100538.25
2022-11-19T08:54:29.539Z,100539.19
2022-11-19T08:56:58.233Z,100543.38
2022-11-19T08:59:26.951Z,100552.19
2022-11-19T09:01:56.989Z,100551.31
2022-11-19T09:04:25.624Z,100541.91
2022-11-19T09:06:54.454Z,100554.03
2022-11-19T09:09:23.125Z,100555.78
2022-11-19T09:11:51.717Z,100553.13
2022-11-19T09:14:21.151Z,100552.31
2022-11-19T09:16:50.116Z,100547.94
2022-11-19T09:19:20.232Z,100546.19
2022-11-19T09:21:49.380Z,100546.91
2022-11-19T09:24:18.397Z,100551.16
2022-11-19T09:26:51.831Z,100555.38
2022-11-19T09:29:21.583Z,100541.38
2022-11-19T09:31:50.391Z,100548.34
2022-11-19T09:34:20.905Z,100543.16
2022-11-19T09:36:49.807Z,100544.88
2022-11-19T09:39:18.385Z,100547.47
2022-11-19T09:41:53.748Z,100548.25
2022-11-19T09:44:46.973Z,100545.75
2022-11-19T09:47:24.817Z,100543.16
2022-11-19T09:50:04.051Z,100548.38
2022-11-19T09:52:34.874Z,100551.88
2022-11-19T09:55:04.446Z,100545.84
2022-11-19T09:57:38.901Z,100545.91
2022-11-19T10:00:10.591Z,100551.97
2022-11-19T10:02:41.825Z,100553.13
2022-11-19T10:05:16.642Z,100541.25
2022-11-19T10:07:57.955Z,100538.78
2022-11-19T10:10:38.770Z,100540.00
2022-11-19T10:13:23.768Z,100539.38
2022-11-19T10:16:07.052Z,100526.72
2022-11-19T10:18:47.906Z,100521.75
2022-11-19T10:21:25.208Z,100521.16
2022-11-19T10:24:02.884Z,100523.84
2022-11-19T10:26:36.879Z,100518.88
2022-11-19T10:29:14.008Z,100520.75
2022-11-19T10:31:47.692Z,100517.53
2022-11-19T10:34:23.182Z,100519.50
2022-11-19T10:36:58.461Z,100511.06
2022-11-19T10:39:33.678Z,100514.63
2022-11-19T10:42:19.008Z,100515.66
2022-11-19T10:44:54.296Z,100511.47
2022-11-19T10:47:27.939Z,100514.25
2022-11-19T10:49:57.235Z,100516.94
2022-11-19T10:52:36.754Z,100523.13
2022-11-19T10:55:15.932Z,100516.28
2022-11-19T10:57:45.012Z,100516.53
2022-11-19T11:00:14.945Z,100515.03
2022-11-19T11:02:47.941Z,100517.84
2022-11-19T11:05:19.518Z,100509.28
2022-11-19T11:07:52.066Z,100509.53
2022-11-19T11:10:37.401Z,100501.91
2022-11-19T11:13:36.033Z,100509.78
2022-11-19T11:16:10.982Z,100505.66
2022-11-19T11:18:41.419Z,100497.13
2022-11-19T11:21:24.105Z,100500.78
2022-11-19T11:23:55.641Z,100498.53
2022-11-19T11:26:26.563Z,100496.84
2022-11-19T11:28:58.021Z,100493.44
2022-11-19T11:31:41.061Z,100492.66
2022-11-19T11:34:28.762Z,100492.66
2022-11-19T11:36:58.443Z,100490.09
2022-11-19T11:39:32.018Z,100479.94
2022-11-19T11:42:05.910Z,100473.28
2022-11-19T11:44:38.462Z,100477.00
2022-11-19T11:47:15.198Z,100471.22
2022-11-19T11:49:47.532Z,100471.56
2022-11-19T11:52:20.899Z,100469.97
2022-11-19T11:54:59.798Z,100464.88
2022-11-19T11:57:30.205Z,100474.53
2022-11-19T11:59:59.649Z,100466.72
2022-11-19T12:02:31.186Z,100467.63
2022-11-19T12:05:03.562Z,100456.44
2022-11-19T12:07:54.265Z,100455.72
2022-11-19T12:10:30.760Z,100459.34
2022-11-19T12:13:17.885Z,100464.63
2022-11-19T12:15:58.137Z,100468.16
2022-11-19T12:18:36.498Z,100463.03
2022-11-19T12:21:12.005Z,100464.00
2022-11-19T12:23:59.569Z,100461.41
2022-11-19T12:26:39.895Z,100460.69
2022-11-19T12:29:20.787Z,100453.88
2022-11-19T12:32:04.103Z,100453.88
2022-11-19T12:35:16.346Z,100456.28
2022-11-19T12:38:00.031Z,100458.81
2022-11-19T12:40:40.819Z,100450.91
2022-11-19T12:43:29.975Z,100456.91
2022-11-19T12:46:07.725Z,100453.28
2022-11-19T12:48:48.555Z,100455.63
2022-11-19T12:51:30.961Z,100446.72
2022-11-19T12:54:27.886Z,100454.41
2022-11-19T12:57:22.284Z,100444.78
2022-11-19T13:00:06.323Z,100443.13
2022-11-19T13:02:41.376Z,100433.56
2022-11-19T13:05:18.124Z,100424.84
2022-11-19T13:07:52.911Z,100428.25
2022-11-19T13:10:26.836Z,100438.69
2022-11-19T13:12:59.416Z,100437.81
2022-11-19T13:15:35.972Z,100432.66
2022-11-19T13:18:11.054Z,100420.44
2022-11-19T13:20:47.805Z,100424.88
2022-11-19T13:23:21.329Z,100422.28
2022-11-19T13:25:59.419Z,100425.94
2022-11-19T13:28:34.752Z,100418.41
2022-11-19T13:31:12.477Z,100408.97
2022-11-19T13:33:48.114Z,100403.78
2022-11-19T13:36:20.938Z,100408.94
2022-11-19T13:38:56.407Z,100412.25
2022-11-19T13:41:30.536Z,100414.81
2022-11-19T13:44:28.995Z,100408.66
2022-11-19T13:47:01.145Z,100411.31
2022-11-19T13:49:34.386Z,100410.34
2022-11-19T13:52:08.296Z,100421.75
2022-11-19T13:54:40.152Z,100419.19
2022-11-19T13:57:23.712Z,100416.66
2022-11-19T13:59:57.721Z,100423.41
2022-11-19T14:02:56.728Z,100429.16
2022-11-19T14:05:44.564Z,100423.63
2022-11-19T14:08:42.395Z,100405.78
2022-11-19T14:11:32.704Z,100425.84
2022-11-19T14:14:46.801Z,100416.34
2022-11-19T14:17:42.739Z,100418.19
2022-11-19T14:20:53.724Z,100417.38
2022-11-19T14:24:00.872Z,100418.25
2022-11-19T14:27:02.528Z,100416.50
2022-11-19T14:29:53.468Z,100418.22
2022-11-19T14:32:32.081Z,100418.06
2022-11-19T14:35:30.545Z,100417.84
2022-11-19T14:38:30.033Z,100414.13
2022-11-19T14:41:21.944Z,100382.38
2022-11-19T14:44:11.677Z,100412.09
2022-11-19T14:46:43.320Z,100406.78
2022-11-19T14:49:34.125Z,100413.53
2022-11-19T14:52:04.798Z,100407.25
2022-11-19T14:54:40.858Z,100401.03
2022-11-19T14:57:25.164Z,100394.78
2022-11-19T14:59:57.879Z,100395.56
2022-11-19T15:02:34.727Z,100393.69
2022-11-19T15:05:08.561Z,100395.28
2022-11-19T15:07:41.645Z,100393.44
2022-11-19T15:10:30.656Z,100391.53
2022-11-19T15:13:26.399Z,100390.47
2022-11-19T15:16:04.067Z,100391.97
2022-11-19T15:19:03.165Z,100391.69
2022-11-19T15:22:10.740Z,100396.75
2022-11-19T15:25:12.508Z,100395.63
2022-11-19T15:28:06.566Z,100396.34
2022-11-19T15:30:57.318Z,100393.56
2022-11-19T15:34:14.253Z,100397.00
2022-11-19T15:36:45.988Z,100397.72
2022-11-19T15:39:22.306Z,100394.13
2022-11-19T15:42:02.449Z,100386.06
2022-11-19T15:44:40.777Z,100393.63
2022-11-19T15:47:15.589Z,100396.19
2022-11-19T15:49:45.536Z,100393.41
2022-11-19T15:52:21.278Z,100392.53
2022-11-19T15:54:50.130Z,100396.75
2022-11-19T15:57:26.114Z,100385.63
2022-11-19T16:00:00.974Z,100387.38
2022-11-19T16:02:39.667Z,100383.88
2022-11-19T16:05:19.845Z,100393.34
2022-11-19T16:07:49.599Z,100390.75
2022-11-19T16:10:23.818Z,100390.72
2022-11-19T16:13:14.258Z,100388.06
2022-11-19T16:16:05.329Z,100385.47
2022-11-19T16:18:34.004Z,100379.22
2022-11-19T16:21:02.709Z,100383.44
2022-11-19T16:23:31.476Z,100368.78
2022-11-19T16:26:03.682Z,100369.69
2022-11-19T16:28:32.991Z,100372.25
2022-11-19T16:31:05.083Z,100367.00
2022-11-19T16:33:36.816Z,100367.88
2022-11-19T16:36:23.598Z,100371.22
2022-11-19T16:38:54.671Z,100373.72
2022-11-19T16:41:43.620Z,100370.06
2022-11-19T16:44:17.017Z,100375.34
2022-11-19T16:46:47.423Z,100367.56
2022-11-19T16:49:31.244Z,100367.75
2022-11-19T16:52:00.728Z,100367.94
2022-11-19T16:54:46.750Z,100362.97
2022-11-19T16:57:19.177Z,100374.34
2022-11-19T16:59:50.982Z,100373.78
2022-11-19T17:02:25.573Z,100375.06
2022-11-19T17:04:55.254Z,100377.13
2022-11-19T17:07:27.308Z,100384.31
2022-11-19T17:10:12.588Z,100381.94
2022-11-19T17:12:52.768Z,100380.38
2022-11-19T17:15:40.449Z,100382.22
2022-11-19T17:18:22.004Z,100386.47
2022-11-19T17:20:54.096Z,100383.72
2022-11-19T17:23:24.828Z,100385.25
2022-11-19T17:25:58.684Z,100385.03
2022-11-19T17:28:35.186Z,100381.44
2022-11-19T17:31:06.769Z,100385.69
2022-11-19T17:33:37.448Z,100384.75
2022-11-19T17:36:13.544Z,100384.75
2022-11-19T17:38:42.853Z,100377.84
2022-11-19T17:41:15.993Z,100389.31
2022-11-19T17:44:02.633Z,100387.88
2022-11-19T17:46:31.937Z,100392.44
2022-11-19T17:49:02.112Z,100392.59
2022-11-19T17:51:30.998Z,100395.28
2022-11-19T17:53:59.603Z,100396.22
2022-11-19T17:56:30.866Z,100396.28
2022-11-19T17:59:01.169Z,100393.56
2022-11-19T18:01:30.213Z,100392.41
2022-11-19T18:03:59.413Z,100393.00
2022-11-19T18:06:29.742Z,100396.34
2022-11-19T18:08:58.741Z,100395.50
2022-11-19T18:11:27.999Z,100392.22
2022-11-19T18:14:01.846Z,100395.13
2022-11-19T18:16:34.131Z,100402.31
2022-11-19T18:19:02.943Z,100401.66
2022-11-19T18:21:34.829Z,100396.72
2022-11-19T18:24:03.690Z,100403.88
2022-11-19T18:26:32.448Z,100399.69
2022-11-19T18:29:01.171Z,100406.78
2022-11-19T18:31:30.254Z,100404.28
2022-11-19T18:33:59.111Z,100407.88
2022-11-19T18:36:28.043Z,100412.38
2022-11-19T18:39:00.454Z,100413.38
2022-11-19T18:41:29.358Z,100403.03
2022-11-19T18:44:15.459Z,100407.47
2022-11-19T18:46:44.429Z,100412.69
2022-11-19T18:49:13.192Z,100410.13
2022-11-19T18:51:43.092Z,100411.81
2022-11-19T18:54:14.252Z,100408.38
2022-11-19T18:56:43.111Z,100407.59
2022-11-19T18:59:13.402Z,100401.63
2022-11-19T19:01:42.772Z,100411.16
2022-11-19T19:04:14.476Z,100415.47
2022-11-19T19:06:43.791Z,100419.81
2022-11-19T19:09:20.383Z,100420.75
2022-11-19T19:12:12.602Z,100413.78
2022-11-19T19:14:41.648Z,100419.09
2022-11-19T19:17:10.979Z,100409.59
2022-11-19T19:19:39.957Z,100415.66
2022-11-19T19:22:08.685Z,100406.94
2022-11-19T19:24:39.323Z,100412.97
2022-11-19T19:27:08.184Z,100336.81
2022-11-19T19:29:37.311Z,100414.69
2022-11-19T19:32:06.342Z,100414.72
2022-11-19T19:34:36.029Z,100413.88
2022-11-19T19:37:05.240Z,100411.28
2022-11-19T19:39:33.995Z,100423.44
2022-11-19T19:42:03.991Z,100425.22
2022-11-19T19:44:32.650Z,100423.59
2022-11-19T19:47:02.285Z,100431.41
2022-11-19T19:49:34.691Z,100422.75
2022-11-19T19:52:07.464Z,100421.06
2022-11-19T19:54:38.583Z,100423.69
2022-11-19T19:57:08.652Z,100421.06
2022-11-19T19:59:37.401Z,100424.47
2022-11-19T20:02:06.035Z,100425.34
2022-11-19T20:04:34.697Z,100426.28
2022-11-19T20:07:03.322Z,100423.69
2022-11-19T20:09:33.136Z,100427.22
2022-11-19T20:12:01.918Z,100422.91
2022-11-19T20:14:31.888Z,100427.25
2022-11-19T20:17:00.463Z,100428.19
2022-11-19T20:19:32.350Z,100426.44
2022-11-19T20:22:01.203Z,100427.38
2022-11-19T20:24:29.993Z,100430.03
2022-11-19T20:26:58.663Z,100430.94
2022-11-19T20:29:27.253Z,100435.28
2022-11-19T20:31:57.351Z,100437.03
2022-11-19T20:34:26.036Z,100436.16
2022-11-19T20:36:54.680Z,100430.94
2022-11-19T20:39:23.723Z,100431.00
2022-11-19T20:42:09.844Z,100436.22
2022-11-19T20:44:38.551Z,100438.06
2022-11-19T20:47:08.545Z,100445.06
2022-11-19T20:49:39.433Z,100439.00
2022-11-19T20:52:08.598Z,100435.53
2022-11-19T20:54:37.685Z,100431.16
2022-11-19T20:57:06.417Z,100441.56
2022-11-19T20:59:35.034Z,100444.97
2022-11-19T21:02:03.790Z,100434.63
2022-11-19T21:04:37.130Z,100440.69
2022-11-19T21:07:06.720Z,100444.09
2022-11-19T21:09:35.585Z,100437.25
2022-11-19T21:12:04.332Z,100442.50
2022-11-19T21:14:33.159Z,100445.13
2022-11-19T21:17:02.021Z,100445.91
2022-11-19T21:19:30.676Z,100444.09
2022-11-19T21:22:00.755Z,100437.22
2022-11-19T21:24:29.554Z,100437.22
2022-11-19T21:26:58.244Z,100439.81
2022-11-19T21:29:26.940Z,100432.03
2022-11-19T21:31:55.717Z,100440.72
2022-11-19T21:34:24.668Z,100440.63
2022-11-19T21:36:53.403Z,100442.44
2022-11-19T21:39:23.676Z,100443.38
2022-11-19T21:41:52.601Z,100445.13
2022-11-19T21:44:22.151Z,100435.53
2022-11-19T21:46:51.066Z,100435.56
2022-11-19T21:49:19.936Z,100438.03
2022-11-19T21:51:49.204Z,100437.09
2022-11-19T21:54:18.846Z,100435.38
2022-11-19T21:56:48.855Z,100440.59
2022-11-19T21:59:17.450Z,100440.59
2022-11-19T22:01:49.215Z,100440.56
2022-11-19T22:04:20.443Z,100436.22
2022-11-19T22:06:48.963Z,100438.78
2022-11-19T22:09:17.977Z,100438.75
2022-11-19T22:11:48.153Z,100434.41
2022-11-19T22:14:16.775Z,100432.53
2022-11-19T22:16:45.428Z,100431.72
2022-11-19T22:19:14.889Z,100429.09
2022-11-19T22:21:43.471Z,100428.31
2022-11-19T22:24:13.884Z,100430.84
2022-11-19T22:26:42.543Z,100440.38
2022-11-19T22:29:12.604Z,100430.78
2022-11-19T22:31:41.202Z,100435.94
2022-11-19T22:34:13.434Z,100425.31
2022-11-19T22:36:42.844Z,100436.69
2022-11-19T22:39:12.775Z,100422.78
2022-11-19T22:41:41.704Z,100427.13
2022-11-19T22:44:11.785Z,100416.66
2022-11-19T22:46:40.595Z,100423.59
2022-11-19T22:49:09.211Z,100417.53
2022-11-19T22:51:38.147Z,100412.28
2022-11-19T22:54:11.619Z,100389.44
2022-11-19T22:56:41.071Z,100416.63
2022-11-19T22:59:11.027Z,100415.75
2022-11-19T23:01:39.805Z,100403.56
2022-11-19T23:04:09.960Z,100404.38
2022-11-19T23:06:38.949Z,100405.16
2022-11-19T23:09:08.278Z,100409.50
2022-11-19T23:11:54.262Z,100407.63
2022-11-19T23:14:25.300Z,100403.28
2022-11-19T23:16:53.915Z,100397.25
2022-11-19T23:19:23.266Z,100400.72
2022-11-19T23:21:52.015Z,100400.81
2022-11-19T23:24:20.589Z,100392.19
2022-11-19T23:26:49.202Z,100393.09
2022-11-19T23:29:17.879Z,100397.41
2022-11-19T23:31:47.975Z,100391.31
2022-11-19T23:34:16.626Z,100389.53
2022-11-19T23:36:45.170Z,100389.53
2022-11-19T23:39:17.839Z,100393.91
2022-11-19T23:41:46.699Z,100386.09
2022-11-19T23:44:15.262Z,100393.00
2022-11-19T23:46:43.972Z,100386.91
2022-11-19T23:49:13.881Z,100387.72
2022-11-19T23:51:42.836Z,100384.19
2022-11-19T23:54:13.931Z,100379.63
2022-11-19T23:56:42.540Z,100384.63
2022-11-19T23:59:11.166Z,100387.75
